sensor_id;sensor_type;location;lat;lon;timestamp;P1;durP1;ratioP1;P2;durP2;ratioP2
70694;SDS011;58269;52.246;21.104;2023-07-29T00:01:08;5.60;;;3.70;;
70694;SDS011;58269;52.246;21.104;2023-07-29T00:03:10;4.70;;;3.50;;
70694;SDS011;58269;52.246;21.104;2023-07-29T00:05:12;4.20;;;3.70;;
70694;SDS011;58269;52.246;21.104;2023-07-29T00:07:14;5.40;;;4.30;;
70694;SDS011;58269;52.246;21.104;2023-07-29T00:09:16;4.80;;;4.20;;
70694;SDS011;58269;52.246;21.104;2023-07-29T00:11:18;2.90;;;2.70;;
70694;SDS011;58269;52.246;21.104;2023-07-29T00:13:20;4.20;;;3.80;;
70694;SDS011;58269;52.246;21.104;2023-07-29T00:15:21;5.00;;;4.00;;
70694;SDS011;58269;52.246;21.104;2023-07-29T00:17:24;3.70;;;3.10;;
70694;SDS011;58269;52.246;21.104;2023-07-29T00:19:25;4.60;;;3.60;;
70694;SDS011;58269;52.246;21.104;2023-07-29T00:21:28;3.60;;;3.10;;
70694;SDS011;58269;52.246;21.104;2023-07-29T00:23:29;4.70;;;3.60;;
70694;SDS011;58269;52.246;21.104;2023-07-29T00:25:31;6.50;;;4.20;;
70694;SDS011;58269;52.246;21.104;2023-07-29T00:27:33;4.70;;;4.10;;
70694;SDS011;58269;52.246;21.104;2023-07-29T00:29:35;6.10;;;3.90;;
70694;SDS011;58269;52.246;21.104;2023-07-29T00:31:36;4.80;;;3.70;;
70694;SDS011;58269;52.246;21.104;2023-07-29T00:33:38;4.30;;;3.80;;
70694;SDS011;58269;52.246;21.104;2023-07-29T00:35:40;4.60;;;3.10;;
70694;SDS011;58269;52.246;21.104;2023-07-29T00:37:42;4.30;;;2.70;;
70694;SDS011;58269;52.246;21.104;2023-07-29T00:39:44;5.10;;;3.60;;
70694;SDS011;58269;52.246;21.104;2023-07-29T00:41:46;6.20;;;4.70;;
70694;SDS011;58269;52.246;21.104;2023-07-29T00:43:48;5.90;;;4.30;;
70694;SDS011;58269;52.246;21.104;2023-07-29T00:45:50;7.80;;;4.50;;
70694;SDS011;58269;52.246;21.104;2023-07-29T00:47:52;6.20;;;4.50;;
70694;SDS011;58269;52.246;21.104;2023-07-29T00:49:54;6.00;;;3.80;;
70694;SDS011;58269;52.246;21.104;2023-07-29T00:51:56;6.10;;;4.50;;
70694;SDS011;58269;52.246;21.104;2023-07-29T00:54:00;4.20;;;3.80;;
70694;SDS011;58269;52.246;21.104;2023-07-29T00:56:02;5.40;;;4.70;;
70694;SDS011;58269;52.246;21.104;2023-07-29T00:58:04;6.20;;;4.80;;
70694;SDS011;58269;52.246;21.104;2023-07-29T01:00:08;5.30;;;4.60;;
70694;SDS011;58269;52.246;21.104;2023-07-29T01:02:10;6.70;;;4.90;;
70694;SDS011;58269;52.246;21.104;2023-07-29T01:04:12;6.30;;;5.50;;
70694;SDS011;58269;52.246;21.104;2023-07-29T01:06:26;4.90;;;4.40;;
70694;SDS011;58269;52.246;21.104;2023-07-29T01:08:33;6.50;;;5.60;;
70694;SDS011;58269;52.246;21.104;2023-07-29T01:15:27;6.50;;;5.00;;
70694;SDS011;58269;52.246;21.104;2023-07-29T01:17:35;6.00;;;5.20;;
70694;SDS011;58269;52.246;21.104;2023-07-29T01:22:11;7.50;;;5.20;;
70694;SDS011;58269;52.246;21.104;2023-07-29T01:24:13;6.00;;;5.40;;
70694;SDS011;58269;52.246;21.104;2023-07-29T01:26:15;6.00;;;5.30;;
70694;SDS011;58269;52.246;21.104;2023-07-29T01:28:17;7.60;;;5.50;;
70694;SDS011;58269;52.246;21.104;2023-07-29T01:30:19;6.80;;;5.30;;
70694;SDS011;58269;52.246;21.104;2023-07-29T01:34:35;9.00;;;5.80;;
70694;SDS011;58269;52.246;21.104;2023-07-29T01:36:46;7.60;;;5.30;;
70694;SDS011;58269;52.246;21.104;2023-07-29T01:38:48;6.90;;;5.40;;
70694;SDS011;58269;52.246;21.104;2023-07-29T01:40:51;7.00;;;5.70;;
70694;SDS011;58269;52.246;21.104;2023-07-29T01:42:54;8.20;;;5.90;;
70694;SDS011;58269;52.246;21.104;2023-07-29T01:44:57;6.90;;;5.50;;
70694;SDS011;58269;52.246;21.104;2023-07-29T01:47:00;10.40;;;6.70;;
70694;SDS011;58269;52.246;21.104;2023-07-29T01:49:02;8.10;;;6.70;;
70694;SDS011;58269;52.246;21.104;2023-07-29T01:51:06;8.20;;;6.30;;
70694;SDS011;58269;52.246;21.104;2023-07-29T01:53:08;9.00;;;7.50;;
70694;SDS011;58269;52.246;21.104;2023-07-29T01:55:10;11.60;;;8.20;;
70694;SDS011;58269;52.246;21.104;2023-07-29T01:57:12;11.10;;;8.20;;
70694;SDS011;58269;52.246;21.104;2023-07-29T01:59:14;10.40;;;8.10;;
70694;SDS011;58269;52.246;21.104;2023-07-29T02:01:17;12.40;;;9.20;;
70694;SDS011;58269;52.246;21.104;2023-07-29T02:03:19;11.90;;;9.30;;
70694;SDS011;58269;52.246;21.104;2023-07-29T02:05:21;11.30;;;9.70;;
70694;SDS011;58269;52.246;21.104;2023-07-29T02:07:23;16.40;;;10.10;;
70694;SDS011;58269;52.246;21.104;2023-07-29T02:09:28;12.60;;;10.30;;
70694;SDS011;58269;52.246;21.104;2023-07-29T02:11:30;12.10;;;10.10;;
70694;SDS011;58269;52.246;21.104;2023-07-29T02:13:32;11.00;;;9.70;;
70694;SDS011;58269;52.246;21.104;2023-07-29T02:15:34;16.30;;;10.70;;
70694;SDS011;58269;52.246;21.104;2023-07-29T02:17:36;13.60;;;10.30;;
70694;SDS011;58269;52.246;21.104;2023-07-29T02:19:38;12.70;;;9.50;;
70694;SDS011;58269;52.246;21.104;2023-07-29T02:21:40;11.70;;;9.70;;
70694;SDS011;58269;52.246;21.104;2023-07-29T02:23:42;12.20;;;9.90;;
70694;SDS011;58269;52.246;21.104;2023-07-29T02:25:44;11.60;;;9.80;;
70694;SDS011;58269;52.246;21.104;2023-07-29T02:27:46;13.40;;;10.30;;
70694;SDS011;58269;52.246;21.104;2023-07-29T02:29:48;12.40;;;9.80;;
70694;SDS011;58269;52.246;21.104;2023-07-29T02:31:50;12.30;;;9.80;;
70694;SDS011;58269;52.246;21.104;2023-07-29T02:33:52;13.40;;;9.60;;
70694;SDS011;58269;52.246;21.104;2023-07-29T02:35:54;11.60;;;10.00;;
70694;SDS011;58269;52.246;21.104;2023-07-29T02:37:56;13.30;;;10.20;;
70694;SDS011;58269;52.246;21.104;2023-07-29T02:39:58;10.20;;;9.00;;
70694;SDS011;58269;52.246;21.104;2023-07-29T02:42:01;10.50;;;9.00;;
70694;SDS011;58269;52.246;21.104;2023-07-29T02:44:04;12.20;;;9.80;;
70694;SDS011;58269;52.246;21.104;2023-07-29T02:46:06;13.80;;;9.60;;
70694;SDS011;58269;52.246;21.104;2023-07-29T02:48:08;11.20;;;9.30;;
70694;SDS011;58269;52.246;21.104;2023-07-29T02:50:10;11.40;;;9.50;;
70694;SDS011;58269;52.246;21.104;2023-07-29T02:52:12;13.80;;;9.20;;
70694;SDS011;58269;52.246;21.104;2023-07-29T02:54:13;10.80;;;8.90;;
70694;SDS011;58269;52.246;21.104;2023-07-29T02:56:15;11.90;;;9.60;;
70694;SDS011;58269;52.246;21.104;2023-07-29T02:58:17;11.30;;;9.30;;
70694;SDS011;58269;52.246;21.104;2023-07-29T03:00:19;11.30;;;9.30;;
70694;SDS011;58269;52.246;21.104;2023-07-29T03:02:21;11.30;;;9.00;;
70694;SDS011;58269;52.246;21.104;2023-07-29T03:04:23;12.30;;;9.30;;
70694;SDS011;58269;52.246;21.104;2023-07-29T03:06:26;12.80;;;8.60;;
70694;SDS011;58269;52.246;21.104;2023-07-29T03:08:28;10.80;;;8.90;;
70694;SDS011;58269;52.246;21.104;2023-07-29T03:10:29;11.60;;;8.60;;
70694;SDS011;58269;52.246;21.104;2023-07-29T03:12:31;11.60;;;9.30;;
70694;SDS011;58269;52.246;21.104;2023-07-29T03:14:33;9.60;;;8.60;;
70694;SDS011;58269;52.246;21.104;2023-07-29T03:16:35;9.80;;;8.70;;
70694;SDS011;58269;52.246;21.104;2023-07-29T03:18:37;9.50;;;8.10;;
70694;SDS011;58269;52.246;21.104;2023-07-29T03:20:39;9.50;;;8.00;;
70694;SDS011;58269;52.246;21.104;2023-07-29T03:22:41;10.60;;;9.10;;
70694;SDS011;58269;52.246;21.104;2023-07-29T03:24:43;11.80;;;8.80;;
70694;SDS011;58269;52.246;21.104;2023-07-29T03:26:45;9.60;;;8.60;;
70694;SDS011;58269;52.246;21.104;2023-07-29T03:28:47;12.20;;;8.80;;
70694;SDS011;58269;52.246;21.104;2023-07-29T03:30:49;12.00;;;8.40;;
70694;SDS011;58269;52.246;21.104;2023-07-29T03:32:51;10.40;;;8.10;;
70694;SDS011;58269;52.246;21.104;2023-07-29T03:34:53;12.10;;;9.30;;
70694;SDS011;58269;52.246;21.104;2023-07-29T03:36:55;11.10;;;8.80;;
70694;SDS011;58269;52.246;21.104;2023-07-29T03:38:57;10.30;;;8.50;;
70694;SDS011;58269;52.246;21.104;2023-07-29T03:41:00;9.60;;;8.60;;
70694;SDS011;58269;52.246;21.104;2023-07-29T03:43:04;9.80;;;8.50;;
70694;SDS011;58269;52.246;21.104;2023-07-29T03:45:06;10.50;;;8.70;;
70694;SDS011;58269;52.246;21.104;2023-07-29T03:47:08;12.70;;;9.00;;
70694;SDS011;58269;52.246;21.104;2023-07-29T03:49:10;9.30;;;8.00;;
70694;SDS011;58269;52.246;21.104;2023-07-29T03:51:13;13.90;;;9.10;;
70694;SDS011;58269;52.246;21.104;2023-07-29T03:53:15;13.00;;;8.70;;
70694;SDS011;58269;52.246;21.104;2023-07-29T03:55:18;9.60;;;8.40;;
70694;SDS011;58269;52.246;21.104;2023-07-29T03:57:20;9.80;;;8.00;;
70694;SDS011;58269;52.246;21.104;2023-07-29T03:59:22;9.30;;;8.10;;
70694;SDS011;58269;52.246;21.104;2023-07-29T04:01:24;12.00;;;9.30;;
70694;SDS011;58269;52.246;21.104;2023-07-29T04:03:26;15.60;;;9.10;;
70694;SDS011;58269;52.246;21.104;2023-07-29T04:05:28;10.10;;;8.20;;
70694;SDS011;58269;52.246;21.104;2023-07-29T04:07:30;10.60;;;9.00;;
70694;SDS011;58269;52.246;21.104;2023-07-29T04:09:33;10.20;;;8.10;;
70694;SDS011;58269;52.246;21.104;2023-07-29T04:11:35;12.00;;;8.40;;
70694;SDS011;58269;52.246;21.104;2023-07-29T04:13:37;10.40;;;9.20;;
70694;SDS011;58269;52.246;21.104;2023-07-29T04:15:39;9.40;;;7.90;;
70694;SDS011;58269;52.246;21.104;2023-07-29T04:17:41;9.40;;;8.20;;
70694;SDS011;58269;52.246;21.104;2023-07-29T04:19:43;10.70;;;8.00;;
70694;SDS011;58269;52.246;21.104;2023-07-29T04:21:45;11.40;;;7.90;;
70694;SDS011;58269;52.246;21.104;2023-07-29T04:23:47;12.60;;;9.90;;
70694;SDS011;58269;52.246;21.104;2023-07-29T04:25:49;9.80;;;8.70;;
70694;SDS011;58269;52.246;21.104;2023-07-29T04:27:51;10.70;;;9.10;;
70694;SDS011;58269;52.246;21.104;2023-07-29T04:29:53;10.80;;;9.40;;
70694;SDS011;58269;52.246;21.104;2023-07-29T04:31:55;10.60;;;8.80;;
70694;SDS011;58269;52.246;21.104;2023-07-29T04:33:56;11.60;;;9.20;;
70694;SDS011;58269;52.246;21.104;2023-07-29T04:35:58;10.80;;;8.90;;
70694;SDS011;58269;52.246;21.104;2023-07-29T04:38:00;11.10;;;9.00;;
70694;SDS011;58269;52.246;21.104;2023-07-29T04:40:02;11.90;;;8.50;;
70694;SDS011;58269;52.246;21.104;2023-07-29T04:42:04;7.30;;;6.30;;
70694;SDS011;58269;52.246;21.104;2023-07-29T04:44:06;11.60;;;7.50;;
70694;SDS011;58269;52.246;21.104;2023-07-29T04:46:08;11.00;;;8.40;;
70694;SDS011;58269;52.246;21.104;2023-07-29T04:48:10;10.20;;;7.90;;
70694;SDS011;58269;52.246;21.104;2023-07-29T04:50:12;11.50;;;9.00;;
70694;SDS011;58269;52.246;21.104;2023-07-29T04:52:14;9.30;;;8.00;;
70694;SDS011;58269;52.246;21.104;2023-07-29T04:54:16;11.20;;;8.50;;
70694;SDS011;58269;52.246;21.104;2023-07-29T04:56:18;9.00;;;7.30;;
70694;SDS011;58269;52.246;21.104;2023-07-29T04:58:20;10.50;;;8.80;;
70694;SDS011;58269;52.246;21.104;2023-07-29T05:00:22;9.70;;;8.20;;
70694;SDS011;58269;52.246;21.104;2023-07-29T05:02:24;11.50;;;9.40;;
70694;SDS011;58269;52.246;21.104;2023-07-29T05:04:26;11.00;;;8.70;;
70694;SDS011;58269;52.246;21.104;2023-07-29T05:06:28;10.10;;;8.40;;
70694;SDS011;58269;52.246;21.104;2023-07-29T05:08:30;12.00;;;10.00;;
70694;SDS011;58269;52.246;21.104;2023-07-29T05:10:32;11.40;;;8.90;;
70694;SDS011;58269;52.246;21.104;2023-07-29T05:12:34;8.20;;;7.20;;
70694;SDS011;58269;52.246;21.104;2023-07-29T05:14:36;10.10;;;8.50;;
70694;SDS011;58269;52.246;21.104;2023-07-29T05:16:38;10.80;;;9.30;;
70694;SDS011;58269;52.246;21.104;2023-07-29T05:18:40;10.80;;;9.60;;
70694;SDS011;58269;52.246;21.104;2023-07-29T05:20:42;10.00;;;8.50;;
70694;SDS011;58269;52.246;21.104;2023-07-29T05:22:45;11.10;;;8.90;;
70694;SDS011;58269;52.246;21.104;2023-07-29T05:24:47;12.00;;;9.60;;
70694;SDS011;58269;52.246;21.104;2023-07-29T05:26:49;11.30;;;8.80;;
70694;SDS011;58269;52.246;21.104;2023-07-29T05:28:50;11.20;;;9.00;;
70694;SDS011;58269;52.246;21.104;2023-07-29T05:30:53;11.70;;;9.80;;
70694;SDS011;58269;52.246;21.104;2023-07-29T05:32:54;11.00;;;9.70;;
70694;SDS011;58269;52.246;21.104;2023-07-29T05:34:56;14.30;;;11.10;;
70694;SDS011;58269;52.246;21.104;2023-07-29T05:36:58;14.70;;;11.80;;
70694;SDS011;58269;52.246;21.104;2023-07-29T05:39:00;18.10;;;13.70;;
70694;SDS011;58269;52.246;21.104;2023-07-29T05:41:02;15.70;;;13.90;;
70694;SDS011;58269;52.246;21.104;2023-07-29T05:43:04;17.40;;;14.80;;
70694;SDS011;58269;52.246;21.104;2023-07-29T05:45:06;17.90;;;14.50;;
70694;SDS011;58269;52.246;21.104;2023-07-29T05:47:09;18.30;;;15.20;;
70694;SDS011;58269;52.246;21.104;2023-07-29T05:49:11;20.00;;;15.30;;
70694;SDS011;58269;52.246;21.104;2023-07-29T05:51:13;16.10;;;13.40;;
70694;SDS011;58269;52.246;21.104;2023-07-29T05:53:15;16.50;;;13.80;;
70694;SDS011;58269;52.246;21.104;2023-07-29T05:55:17;16.50;;;14.60;;
70694;SDS011;58269;52.246;21.104;2023-07-29T05:57:19;14.70;;;12.20;;
70694;SDS011;58269;52.246;21.104;2023-07-29T05:59:21;16.30;;;13.50;;
70694;SDS011;58269;52.246;21.104;2023-07-29T06:01:25;15.40;;;12.20;;
70694;SDS011;58269;52.246;21.104;2023-07-29T06:03:27;15.20;;;12.60;;
70694;SDS011;58269;52.246;21.104;2023-07-29T06:05:29;15.00;;;12.50;;
70694;SDS011;58269;52.246;21.104;2023-07-29T06:07:31;15.10;;;12.60;;
70694;SDS011;58269;52.246;21.104;2023-07-29T06:09:35;16.10;;;13.60;;
70694;SDS011;58269;52.246;21.104;2023-07-29T06:11:37;14.60;;;13.00;;
70694;SDS011;58269;52.246;21.104;2023-07-29T06:13:38;16.70;;;12.10;;
70694;SDS011;58269;52.246;21.104;2023-07-29T06:15:40;17.10;;;12.70;;
70694;SDS011;58269;52.246;21.104;2023-07-29T06:17:42;14.20;;;12.10;;
70694;SDS011;58269;52.246;21.104;2023-07-29T06:19:44;12.10;;;10.70;;
70694;SDS011;58269;52.246;21.104;2023-07-29T06:21:46;14.00;;;11.80;;
70694;SDS011;58269;52.246;21.104;2023-07-29T06:23:48;14.70;;;10.80;;
70694;SDS011;58269;52.246;21.104;2023-07-29T06:25:50;12.40;;;11.10;;
70694;SDS011;58269;52.246;21.104;2023-07-29T06:27:51;13.10;;;11.60;;
70694;SDS011;58269;52.246;21.104;2023-07-29T06:29:53;15.40;;;11.70;;
70694;SDS011;58269;52.246;21.104;2023-07-29T06:31:55;13.40;;;12.10;;
70694;SDS011;58269;52.246;21.104;2023-07-29T06:33:58;12.10;;;10.80;;
70694;SDS011;58269;52.246;21.104;2023-07-29T06:36:00;16.40;;;12.30;;
70694;SDS011;58269;52.246;21.104;2023-07-29T06:38:02;13.10;;;11.60;;
70694;SDS011;58269;52.246;21.104;2023-07-29T06:40:03;12.30;;;11.00;;
70694;SDS011;58269;52.246;21.104;2023-07-29T06:42:06;11.30;;;10.10;;
70694;SDS011;58269;52.246;21.104;2023-07-29T06:44:07;11.30;;;10.10;;
70694;SDS011;58269;52.246;21.104;2023-07-29T06:46:09;11.50;;;10.40;;
70694;SDS011;58269;52.246;21.104;2023-07-29T06:48:11;12.90;;;10.60;;
70694;SDS011;58269;52.246;21.104;2023-07-29T06:50:13;14.40;;;10.20;;
70694;SDS011;58269;52.246;21.104;2023-07-29T06:52:15;11.00;;;9.60;;
70694;SDS011;58269;52.246;21.104;2023-07-29T06:54:16;10.50;;;9.40;;
70694;SDS011;58269;52.246;21.104;2023-07-29T06:56:20;12.10;;;10.70;;
70694;SDS011;58269;52.246;21.104;2023-07-29T06:58:22;9.50;;;8.50;;
70694;SDS011;58269;52.246;21.104;2023-07-29T07:00:24;11.60;;;10.40;;
70694;SDS011;58269;52.246;21.104;2023-07-29T07:02:26;12.30;;;10.90;;
70694;SDS011;58269;52.246;21.104;2023-07-29T07:04:28;13.20;;;10.10;;
70694;SDS011;58269;52.246;21.104;2023-07-29T07:06:30;11.70;;;10.10;;
70694;SDS011;58269;52.246;21.104;2023-07-29T07:08:32;13.30;;;9.70;;
70694;SDS011;58269;52.246;21.104;2023-07-29T07:10:34;10.60;;;9.50;;
70694;SDS011;58269;52.246;21.104;2023-07-29T07:12:36;11.30;;;10.00;;
70694;SDS011;58269;52.246;21.104;2023-07-29T07:14:37;12.30;;;11.00;;
70694;SDS011;58269;52.246;21.104;2023-07-29T07:16:39;12.80;;;10.50;;
70694;SDS011;58269;52.246;21.104;2023-07-29T07:18:41;12.20;;;10.20;;
70694;SDS011;58269;52.246;21.104;2023-07-29T07:20:43;11.60;;;10.50;;
70694;SDS011;58269;52.246;21.104;2023-07-29T07:22:45;10.90;;;9.70;;
70694;SDS011;58269;52.246;21.104;2023-07-29T07:24:47;11.90;;;10.70;;
70694;SDS011;58269;52.246;21.104;2023-07-29T07:26:49;11.40;;;10.30;;
70694;SDS011;58269;52.246;21.104;2023-07-29T07:28:50;12.70;;;11.30;;
70694;SDS011;58269;52.246;21.104;2023-07-29T07:30:53;14.10;;;11.40;;
70694;SDS011;58269;52.246;21.104;2023-07-29T07:32:57;13.60;;;12.10;;
70694;SDS011;58269;52.246;21.104;2023-07-29T07:34:58;12.90;;;11.60;;
70694;SDS011;58269;52.246;21.104;2023-07-29T07:37:00;14.20;;;12.70;;
70694;SDS011;58269;52.246;21.104;2023-07-29T07:39:02;12.90;;;11.60;;
70694;SDS011;58269;52.246;21.104;2023-07-29T07:41:04;12.60;;;11.10;;
70694;SDS011;58269;52.246;21.104;2023-07-29T07:43:06;11.40;;;10.30;;
70694;SDS011;58269;52.246;21.104;2023-07-29T07:45:08;11.60;;;10.40;;
70694;SDS011;58269;52.246;21.104;2023-07-29T07:47:09;11.50;;;10.40;;
70694;SDS011;58269;52.246;21.104;2023-07-29T07:49:11;11.60;;;10.40;;
70694;SDS011;58269;52.246;21.104;2023-07-29T07:51:14;10.20;;;9.20;;
70694;SDS011;58269;52.246;21.104;2023-07-29T07:53:16;11.10;;;10.00;;
70694;SDS011;58269;52.246;21.104;2023-07-29T07:55:17;10.00;;;8.90;;
70694;SDS011;58269;52.246;21.104;2023-07-29T07:57:20;10.40;;;8.70;;
70694;SDS011;58269;52.246;21.104;2023-07-29T07:59:23;10.50;;;9.30;;
70694;SDS011;58269;52.246;21.104;2023-07-29T08:01:24;10.20;;;9.20;;
70694;SDS011;58269;52.246;21.104;2023-07-29T08:03:26;11.30;;;10.10;;
70694;SDS011;58269;52.246;21.104;2023-07-29T08:05:28;11.40;;;9.60;;
70694;SDS011;58269;52.246;21.104;2023-07-29T08:07:30;10.90;;;9.80;;
70694;SDS011;58269;52.246;21.104;2023-07-29T08:09:31;9.90;;;8.90;;
70694;SDS011;58269;52.246;21.104;2023-07-29T08:11:33;10.50;;;9.60;;
70694;SDS011;58269;52.246;21.104;2023-07-29T08:13:35;11.00;;;7.70;;
70694;SDS011;58269;52.246;21.104;2023-07-29T08:15:36;10.10;;;8.70;;
70694;SDS011;58269;52.246;21.104;2023-07-29T08:17:38;10.70;;;8.90;;
70694;SDS011;58269;52.246;21.104;2023-07-29T08:19:40;10.40;;;9.40;;
70694;SDS011;58269;52.246;21.104;2023-07-29T08:21:42;9.90;;;8.80;;
70694;SDS011;58269;52.246;21.104;2023-07-29T08:23:44;9.40;;;8.30;;
70694;SDS011;58269;52.246;21.104;2023-07-29T08:25:50;9.10;;;8.30;;
70694;SDS011;58269;52.246;21.104;2023-07-29T08:27:53;8.20;;;7.30;;
70694;SDS011;58269;52.246;21.104;2023-07-29T08:29:55;8.70;;;7.90;;
70694;SDS011;58269;52.246;21.104;2023-07-29T08:31:57;9.00;;;8.00;;
70694;SDS011;58269;52.246;21.104;2023-07-29T08:33:59;9.70;;;8.50;;
70694;SDS011;58269;52.246;21.104;2023-07-29T08:36:01;8.80;;;7.90;;
70694;SDS011;58269;52.246;21.104;2023-07-29T08:38:04;7.80;;;7.00;;
70694;SDS011;58269;52.246;21.104;2023-07-29T08:40:06;8.30;;;7.50;;
70694;SDS011;58269;52.246;21.104;2023-07-29T08:42:08;7.10;;;6.40;;
70694;SDS011;58269;52.246;21.104;2023-07-29T08:44:18;8.50;;;7.50;;
70694;SDS011;58269;52.246;21.104;2023-07-29T08:46:23;8.10;;;7.00;;
70694;SDS011;58269;52.246;21.104;2023-07-29T08:48:32;7.90;;;7.20;;
70694;SDS011;58269;52.246;21.104;2023-07-29T08:50:39;7.50;;;6.80;;
70694;SDS011;58269;52.246;21.104;2023-07-29T08:52:42;6.60;;;6.00;;
70694;SDS011;58269;52.246;21.104;2023-07-29T08:54:47;6.10;;;5.50;;
70694;SDS011;58269;52.246;21.104;2023-07-29T08:56:50;6.20;;;5.60;;
70694;SDS011;58269;52.246;21.104;2023-07-29T08:58:54;5.90;;;5.40;;
70694;SDS011;58269;52.246;21.104;2023-07-29T09:01:00;6.20;;;5.60;;
70694;SDS011;58269;52.246;21.104;2023-07-29T09:03:03;6.20;;;5.60;;
70694;SDS011;58269;52.246;21.104;2023-07-29T09:05:09;5.80;;;5.30;;
70694;SDS011;58269;52.246;21.104;2023-07-29T09:07:12;5.20;;;4.70;;
70694;SDS011;58269;52.246;21.104;2023-07-29T09:09:15;5.10;;;4.60;;
70694;SDS011;58269;52.246;21.104;2023-07-29T09:11:17;5.40;;;4.70;;
70694;SDS011;58269;52.246;21.104;2023-07-29T09:13:19;5.00;;;4.50;;
70694;SDS011;58269;52.246;21.104;2023-07-29T09:15:32;5.30;;;4.80;;
70694;SDS011;58269;52.246;21.104;2023-07-29T09:17:36;4.60;;;4.10;;
70694;SDS011;58269;52.246;21.104;2023-07-29T09:19:38;5.10;;;4.70;;
70694;SDS011;58269;52.246;21.104;2023-07-29T09:21:40;4.60;;;4.20;;
70694;SDS011;58269;52.246;21.104;2023-07-29T09:23:46;3.70;;;3.40;;
70694;SDS011;58269;52.246;21.104;2023-07-29T09:25:49;4.00;;;3.70;;
70694;SDS011;58269;52.246;21.104;2023-07-29T09:27:54;3.70;;;3.40;;
70694;SDS011;58269;52.246;21.104;2023-07-29T09:30:01;3.60;;;3.30;;
70694;SDS011;58269;52.246;21.104;2023-07-29T09:32:17;4.60;;;3.90;;
70694;SDS011;58269;52.246;21.104;2023-07-29T09:34:21;3.80;;;3.50;;
70694;SDS011;58269;52.246;21.104;2023-07-29T09:36:24;4.10;;;3.80;;
70694;SDS011;58269;52.246;21.104;2023-07-29T09:38:26;5.20;;;3.70;;
70694;SDS011;58269;52.246;21.104;2023-07-29T09:40:35;4.20;;;3.70;;
70694;SDS011;58269;52.246;21.104;2023-07-29T09:42:38;8.70;;;4.30;;
70694;SDS011;58269;52.246;21.104;2023-07-29T09:44:39;4.20;;;3.80;;
70694;SDS011;58269;52.246;21.104;2023-07-29T09:46:41;3.50;;;3.20;;
70694;SDS011;58269;52.246;21.104;2023-07-29T09:48:47;4.30;;;3.90;;
70694;SDS011;58269;52.246;21.104;2023-07-29T09:50:51;7.80;;;4.30;;
70694;SDS011;58269;52.246;21.104;2023-07-29T09:52:54;4.10;;;3.70;;
70694;SDS011;58269;52.246;21.104;2023-07-29T09:54:56;4.00;;;3.40;;
70694;SDS011;58269;52.246;21.104;2023-07-29T09:56:58;3.30;;;3.00;;
70694;SDS011;58269;52.246;21.104;2023-07-29T09:59:00;3.30;;;3.00;;
70694;SDS011;58269;52.246;21.104;2023-07-29T10:01:02;5.00;;;4.00;;
70694;SDS011;58269;52.246;21.104;2023-07-29T10:03:03;4.90;;;3.70;;
70694;SDS011;58269;52.246;21.104;2023-07-29T10:05:06;6.50;;;3.60;;
70694;SDS011;58269;52.246;21.104;2023-07-29T10:07:09;5.70;;;3.60;;
70694;SDS011;58269;52.246;21.104;2023-07-29T10:09:11;6.10;;;3.90;;
70694;SDS011;58269;52.246;21.104;2023-07-29T10:11:14;3.90;;;2.80;;
70694;SDS011;58269;52.246;21.104;2023-07-29T10:13:15;3.50;;;2.70;;
70694;SDS011;58269;52.246;21.104;2023-07-29T10:15:17;3.30;;;3.00;;
70694;SDS011;58269;52.246;21.104;2023-07-29T10:17:19;2.20;;;2.10;;
70694;SDS011;58269;52.246;21.104;2023-07-29T10:19:22;2.20;;;2.00;;
70694;SDS011;58269;52.246;21.104;2023-07-29T10:21:26;2.60;;;2.10;;
70694;SDS011;58269;52.246;21.104;2023-07-29T10:23:35;6.00;;;2.50;;
70694;SDS011;58269;52.246;21.104;2023-07-29T10:27:52;3.90;;;2.40;;
70694;SDS011;58269;52.246;21.104;2023-07-29T10:29:57;3.90;;;2.50;;
70694;SDS011;58269;52.246;21.104;2023-07-29T10:32:01;2.30;;;2.10;;
70694;SDS011;58269;52.246;21.104;2023-07-29T10:34:04;2.40;;;2.20;;
70694;SDS011;58269;52.246;21.104;2023-07-29T10:36:06;2.20;;;2.00;;
70694;SDS011;58269;52.246;21.104;2023-07-29T10:38:08;2.00;;;1.90;;
70694;SDS011;58269;52.246;21.104;2023-07-29T10:40:10;2.40;;;1.90;;
70694;SDS011;58269;52.246;21.104;2023-07-29T10:42:13;4.00;;;2.20;;
70694;SDS011;58269;52.246;21.104;2023-07-29T10:45:00;2.80;;;2.10;;
70694;SDS011;58269;52.246;21.104;2023-07-29T10:46:45;2.60;;;2.40;;
70694;SDS011;58269;52.246;21.104;2023-07-29T10:51:01;2.50;;;2.30;;
70694;SDS011;58269;52.246;21.104;2023-07-29T10:53:36;2.80;;;2.40;;
70694;SDS011;58269;52.246;21.104;2023-07-29T10:55:38;4.60;;;2.70;;
70694;SDS011;58269;52.246;21.104;2023-07-29T10:57:45;2.80;;;1.90;;
70694;SDS011;58269;52.246;21.104;2023-07-29T10:59:54;2.40;;;1.80;;
70694;SDS011;58269;52.246;21.104;2023-07-29T11:01:57;2.80;;;2.30;;
70694;SDS011;58269;52.246;21.104;2023-07-29T11:06:21;2.70;;;1.90;;
70694;SDS011;58269;52.246;21.104;2023-07-29T11:08:26;2.30;;;2.10;;
70694;SDS011;58269;52.246;21.104;2023-07-29T11:10:29;2.20;;;2.00;;
70694;SDS011;58269;52.246;21.104;2023-07-29T11:12:48;2.00;;;1.90;;
70694;SDS011;58269;52.246;21.104;2023-07-29T11:14:52;2.40;;;2.20;;
70694;SDS011;58269;52.246;21.104;2023-07-29T11:16:54;1.90;;;1.80;;
70694;SDS011;58269;52.246;21.104;2023-07-29T11:18:56;2.20;;;2.10;;
70694;SDS011;58269;52.246;21.104;2023-07-29T11:21:00;3.50;;;2.20;;
70694;SDS011;58269;52.246;21.104;2023-07-29T11:23:03;1.80;;;1.70;;
70694;SDS011;58269;52.246;21.104;2023-07-29T11:25:06;1.80;;;1.70;;
70694;SDS011;58269;52.246;21.104;2023-07-29T11:27:12;2.20;;;2.00;;
70694;SDS011;58269;52.246;21.104;2023-07-29T11:29:13;1.90;;;1.70;;
70694;SDS011;58269;52.246;21.104;2023-07-29T11:31:17;1.90;;;1.80;;
70694;SDS011;58269;52.246;21.104;2023-07-29T11:33:22;2.20;;;2.00;;
70694;SDS011;58269;52.246;21.104;2023-07-29T11:35:25;2.40;;;2.10;;
70694;SDS011;58269;52.246;21.104;2023-07-29T11:37:27;2.30;;;2.10;;
70694;SDS011;58269;52.246;21.104;2023-07-29T11:39:29;2.10;;;2.00;;
70694;SDS011;58269;52.246;21.104;2023-07-29T11:41:33;2.80;;;2.10;;
70694;SDS011;58269;52.246;21.104;2023-07-29T11:43:35;2.50;;;2.30;;
70694;SDS011;58269;52.246;21.104;2023-07-29T11:45:37;2.10;;;2.00;;
70694;SDS011;58269;52.246;21.104;2023-07-29T11:47:41;2.00;;;1.90;;
70694;SDS011;58269;52.246;21.104;2023-07-29T11:49:43;2.40;;;2.20;;
70694;SDS011;58269;52.246;21.104;2023-07-29T11:51:45;4.00;;;1.90;;
70694;SDS011;58269;52.246;21.104;2023-07-29T11:53:47;2.20;;;1.80;;
70694;SDS011;58269;52.246;21.104;2023-07-29T11:55:53;1.80;;;1.70;;
70694;SDS011;58269;52.246;21.104;2023-07-29T11:57:55;1.70;;;1.60;;
70694;SDS011;58269;52.246;21.104;2023-07-29T11:59:57;1.90;;;1.80;;
70694;SDS011;58269;52.246;21.104;2023-07-29T12:02:07;4.50;;;2.00;;
70694;SDS011;58269;52.246;21.104;2023-07-29T12:04:17;1.90;;;1.80;;
70694;SDS011;58269;52.246;21.104;2023-07-29T12:06:19;2.90;;;2.00;;
70694;SDS011;58269;52.246;21.104;2023-07-29T12:08:21;2.00;;;1.90;;
70694;SDS011;58269;52.246;21.104;2023-07-29T12:10:22;2.30;;;2.10;;
70694;SDS011;58269;52.246;21.104;2023-07-29T12:12:25;2.30;;;2.00;;
70694;SDS011;58269;52.246;21.104;2023-07-29T12:14:29;1.90;;;1.80;;
70694;SDS011;58269;52.246;21.104;2023-07-29T12:16:31;2.10;;;2.00;;
70694;SDS011;58269;52.246;21.104;2023-07-29T12:18:36;3.00;;;2.10;;